^^
Station Historical Data
Daily Summary for February 19, 2017 Units:  Both    English   Metric
« Previous Day
Next Day »
Daily Weekly Monthly Yearly Custom
  High: Low: Average:
Temperature: 78.8 °F /  26 °C 63.0 °F /  17.2 °C 68.8 °F /  20.4 °C
Dew Point: 65.3 °F /  18.5 °C 59.7 °F /  15.4 °C 62.3 °F /  16.8 °C
Humidity: 94% 56% 81%
Wind Speed: 10.1mph /  16.3km/h - 2.4mph /  3.9km/h
Wind Gust: 15.0mph /  24.1km/h - -
Wind- - SE
Pressure: 29.73 in /  1006.7 hPa 29.60 in /  1002.3 hPa -
Precipitation: 0.34 in /  8.64 mm    
Historical Graphs
 
 
Tabular Data for February 19, 2017
Time Temperature Dew Point Pressure Wind Wind Speed Wind Gust Humidity Rainfall Rate (Hourly) solar Conditions
00:05 68.7 °F /  20.4 °C 62.6 °F /  17 °C 29.67in /  1004.6hPa NNE 0.9mph /  1.4km/h 4.0mph /  6.4km/h 81% 0.00in /  0mm 0.0 W/m2
00:11 68.5 °F /  20.3 °C 62.8 °F /  17.1 °C 29.67in /  1004.6hPa NNE 2.0mph /  3.2km/h 3.0mph /  4.8km/h 82% 0.00in /  0mm 0.0 W/m2
00:17 68.4 °F /  20.2 °C 62.6 °F /  17 °C 29.67in /  1004.6hPa Calm   1.0mph /  1.6km/h 82% 0.00in /  0mm 0.0 W/m2
00:23 68.4 °F /  20.2 °C 62.6 °F /  17 °C 29.67in /  1004.6hPa NE 0.9mph /  1.4km/h 2.0mph /  3.2km/h 82% 0.00in /  0mm 0.0 W/m2
00:29 68.4 °F /  20.2 °C 62.6 °F /  17 °C 29.66in /  1004.3hPa Calm   1.0mph /  1.6km/h 82% 0.00in /  0mm 0.0 W/m2
00:35 68.2 °F /  20.1 °C 62.8 °F /  17.1 °C 29.66in /  1004.3hPa Calm     83% 0.00in /  0mm 0.0 W/m2
00:42 68.2 °F /  20.1 °C 62.8 °F /  17.1 °C 29.66in /  1004.3hPa Calm   3.0mph /  4.8km/h 83% 0.00in /  0mm 0.0 W/m2
00:48 68.2 °F /  20.1 °C 62.8 °F /  17.1 °C 29.66in /  1004.3hPa Calm     83% 0.00in /  0mm 0.0 W/m2
00:54 67.8 °F /  19.9 °C 62.4 °F /  16.9 °C 29.66in /  1004.3hPa Calm   1.0mph /  1.6km/h 83% 0.00in /  0mm 0.0 W/m2
01:00 67.8 °F /  19.9 °C 62.8 °F /  17.1 °C 29.65in /  1003.9hPa Calm     84% 0.00in /  0mm 0.0 W/m2
01:06 67.8 °F /  19.9 °C 62.8 °F /  17.1 °C 29.65in /  1003.9hPa West 0.9mph /  1.4km/h 3.0mph /  4.8km/h 84% 0.00in /  0mm 0.0 W/m2
01:12 67.6 °F /  19.8 °C 63.3 °F /  17.4 °C 29.65in /  1003.9hPa Calm   2.0mph /  3.2km/h 86% 0.00in /  0mm 0.0 W/m2
01:18 67.5 °F /  19.7 °C 63.1 °F /  17.3 °C 29.65in /  1003.9hPa Calm   1.0mph /  1.6km/h 86% 0.00in /  0mm 0.0 W/m2
01:24 67.1 °F /  19.5 °C 62.8 °F /  17.1 °C 29.65in /  1003.9hPa WSW 0.9mph /  1.4km/h 1.0mph /  1.6km/h 86% 0.00in /  0mm 0.0 W/m2
01:30 66.9 °F /  19.4 °C 63.0 °F /  17.2 °C 29.65in /  1003.9hPa Calm     87% 0.00in /  0mm 0.0 W/m2
01:36 66.7 °F /  19.3 °C 62.8 °F /  17.1 °C 29.64in /  1003.6hPa WSW 2.0mph /  3.2km/h 2.0mph /  3.2km/h 87% 0.00in /  0mm 0.0 W/m2
01:42 66.7 °F /  19.3 °C 62.8 °F /  17.1 °C 29.64in /  1003.6hPa Calm   3.0mph /  4.8km/h 87% 0.00in /  0mm 0.0 W/m2
01:48 66.6 °F /  19.2 °C 62.6 °F /  17 °C 29.64in /  1003.6hPa Calm   2.0mph /  3.2km/h 87% 0.00in /  0mm 0.0 W/m2
01:54 66.6 °F /  19.2 °C 62.6 °F /  17 °C 29.64in /  1003.6hPa Calm   2.0mph /  3.2km/h 87% 0.00in /  0mm 0.0 W/m2
02:00 66.6 °F /  19.2 °C 62.6 °F /  17 °C 29.64in /  1003.6hPa Calm     87% 0.00in /  0mm 0.0 W/m2
02:06 66.4 °F /  19.1 °C 62.4 °F /  16.9 °C 29.64in /  1003.6hPa Calm   4.0mph /  6.4km/h 87% 0.00in /  0mm 0.0 W/m2
02:12 66.4 °F /  19.1 °C 63.0 °F /  17.2 °C 29.63in /  1003.3hPa Calm   5.0mph /  8km/h 89% 0.01in /  0.25mm 0.0 W/m2
02:18 66.4 °F /  19.1 °C 63.0 °F /  17.2 °C 29.63in /  1003.3hPa Calm   4.0mph /  6.4km/h 89% 0.01in /  0.25mm 0.0 W/m2
02:24 66.0 °F /  18.9 °C 63.0 °F /  17.2 °C 29.64in /  1003.6hPa Calm     90% 0.01in /  0.25mm 0.0 W/m2
02:30 66.0 °F /  18.9 °C 63.0 °F /  17.2 °C 29.63in /  1003.3hPa Calm   1.0mph /  1.6km/h 90% 0.02in /  0.51mm 0.0 W/m2
02:36 66.0 °F /  18.9 °C 63.0 °F /  17.2 °C 29.63in /  1003.3hPa WSW 0.9mph /  1.4km/h 5.0mph /  8km/h 90% 0.02in /  0.51mm 0.0 W/m2
02:42 65.8 °F /  18.8 °C 62.8 °F /  17.1 °C 29.63in /  1003.3hPa Calm   3.0mph /  4.8km/h 90% 0.02in /  0.51mm 0.0 W/m2
02:48 65.8 °F /  18.8 °C 63.1 °F /  17.3 °C 29.62in /  1002.9hPa South 0.9mph /  1.4km/h 6.0mph /  9.7km/h 91% 0.02in /  0.51mm 0.0 W/m2
02:54 65.7 °F /  18.7 °C 62.6 °F /  17 °C 29.62in /  1002.9hPa SW 2.0mph /  3.2km/h 4.0mph /  6.4km/h 90% 0.02in /  0.51mm 0.0 W/m2
03:00 65.7 °F /  18.7 °C 62.6 °F /  17 °C 29.63in /  1003.3hPa WSW 0.9mph /  1.4km/h 3.0mph /  4.8km/h 90% 0.02in /  0.51mm 0.0 W/m2
03:06 65.7 °F /  18.7 °C 62.6 °F /  17 °C 29.62in /  1002.9hPa South 2.9mph /  4.7km/h 6.0mph /  9.7km/h 90% 0.02in /  0.51mm 0.0 W/m2
03:12 65.8 °F /  18.8 °C 62.8 °F /  17.1 °C 29.62in /  1002.9hPa SSW 2.0mph /  3.2km/h 5.0mph /  8km/h 90% 0.02in /  0.51mm 0.0 W/m2
03:18 65.8 °F /  18.8 °C 63.1 °F /  17.3 °C 29.62in /  1002.9hPa Calm   3.0mph /  4.8km/h 91% 0.02in /  0.51mm 0.0 W/m2
03:24 65.7 °F /  18.7 °C 63.0 °F /  17.2 °C 29.62in /  1002.9hPa Calm   5.0mph /  8km/h 91% 0.05in /  1.27mm 0.0 W/m2
03:30 65.7 °F /  18.7 °C 63.3 °F /  17.4 °C 29.61in /  1002.6hPa Calm   3.0mph /  4.8km/h 92% 0.06in /  1.52mm 0.0 W/m2
03:36 65.5 °F /  18.6 °C 63.1 °F /  17.3 °C 29.62in /  1002.9hPa SE 2.0mph /  3.2km/h 4.0mph /  6.4km/h 92% 0.06in /  1.52mm 0.0 W/m2
03:42 65.5 °F /  18.6 °C 63.1 °F /  17.3 °C 29.62in /  1002.9hPa Calm   1.0mph /  1.6km/h 92% 0.09in /  2.29mm 0.0 W/m2
03:48 65.3 °F /  18.5 °C 63.0 °F /  17.2 °C 29.62in /  1002.9hPa Calm     92% 0.10in /  2.54mm 0.0 W/m2
03:54 65.1 °F /  18.4 °C 63.0 °F /  17.2 °C 29.61in /  1002.6hPa Calm     93% 0.10in /  2.54mm 0.0 W/m2
04:00 65.1 °F /  18.4 °C 63.0 °F /  17.2 °C 29.61in /  1002.6hPa Calm     93% 0.10in /  2.54mm 0.0 W/m2
04:06 65.1 °F /  18.4 °C 63.0 °F /  17.2 °C 29.61in /  1002.6hPa Calm     93% 0.11in /  2.79mm 0.0 W/m2
04:12 65.3 °F /  18.5 °C 63.1 °F /  17.3 °C 29.61in /  1002.6hPa SE 2.0mph /  3.2km/h 4.0mph /  6.4km/h 93% 0.13in /  3.3mm 0.0 W/m2
04:18 65.3 °F /  18.5 °C 63.1 °F /  17.3 °C 29.61in /  1002.6hPa Calm     93% 0.13in /  3.3mm 0.0 W/m2
04:24 65.1 °F /  18.4 °C 63.3 °F /  17.4 °C 29.62in /  1002.9hPa Calm   1.0mph /  1.6km/h 94% 0.13in /  3.3mm 0.0 W/m2
04:30 65.1 °F /  18.4 °C 63.3 °F /  17.4 °C 29.61in /  1002.6hPa Calm   2.0mph /  3.2km/h 94% 0.13in /  3.3mm 0.0 W/m2
04:36 65.1 °F /  18.4 °C 63.3 °F /  17.4 °C 29.61in /  1002.6hPa SSW 2.0mph /  3.2km/h 2.0mph /  3.2km/h 94% 0.15in /  3.81mm 0.0 W/m2
04:42 65.1 °F /  18.4 °C 63.0 °F /  17.2 °C 29.61in /  1002.6hPa Calm   4.0mph /  6.4km/h 93% 0.15in /  3.81mm 0.0 W/m2
04:48 64.9 °F /  18.3 °C 62.8 °F /  17.1 °C 29.61in /  1002.6hPa Calm   1.0mph /  1.6km/h 93% 0.15in /  3.81mm 0.0 W/m2
04:54 64.8 °F /  18.2 °C 62.6 °F /  17 °C 29.60in /  1002.3hPa Calm   4.0mph /  6.4km/h 93% 0.17in /  4.32mm 0.0 W/m2
05:00 64.8 °F /  18.2 °C 62.6 °F /  17 °C 29.60in /  1002.3hPa ESE 2.9mph /  4.7km/h 4.0mph /  6.4km/h 93% 0.16in /  4.06mm 0.0 W/m2
05:06 64.8 °F /  18.2 °C 62.6 °F /  17 °C 29.61in /  1002.6hPa East 0.9mph /  1.4km/h 2.0mph /  3.2km/h 93% 0.16in /  4.06mm 0.0 W/m2
05:12 64.6 °F /  18.1 °C 62.8 °F /  17.1 °C 29.61in /  1002.6hPa NNE 2.0mph /  3.2km/h 6.0mph /  9.7km/h 94% 0.16in /  4.06mm 0.0 W/m2
05:18 64.6 °F /  18.1 °C 62.8 °F /  17.1 °C 29.60in /  1002.3hPa Calm   1.0mph /  1.6km/h 94% 0.14in /  3.56mm 0.0 W/m2
05:24 64.6 °F /  18.1 °C 62.8 °F /  17.1 °C 29.60in /  1002.3hPa Calm   1.0mph /  1.6km/h 94% 0.13in /  3.3mm 0.0 W/m2
05:30 64.6 °F /  18.1 °C 62.8 °F /  17.1 °C 29.60in /  1002.3hPa Calm   3.0mph /  4.8km/h 94% 0.10in /  2.54mm 0.0 W/m2
05:36 64.6 °F /  18.1 °C 62.8 °F /  17.1 °C 29.61in /  1002.6hPa Calm   2.0mph /  3.2km/h 94% 0.08in /  2.03mm 0.0 W/m2
05:42 64.8 °F /  18.2 °C 63.0 °F /  17.2 °C 29.61in /  1002.6hPa Calm   1.0mph /  1.6km/h 94% 0.06in /  1.52mm 0.0 W/m2
05:48 64.6 °F /  18.1 °C 62.8 °F /  17.1 °C 29.61in /  1002.6hPa ENE 2.9mph /  4.7km/h 7.0mph /  11.3km/h 94% 0.04in /  1.02mm 0.0 W/m2
05:54 64.4 °F /  18 °C 62.4 °F /  16.9 °C 29.61in /  1002.6hPa SSE 2.9mph /  4.7km/h 8.0mph /  12.9km/h 93% 0.03in /  0.76mm 0.0 W/m2
06:00 64.2 °F /  17.9 °C 62.2 °F /  16.8 °C 29.61in /  1002.6hPa SSE 6.9mph /  11.1km/h 7.0mph /  11.3km/h 93% 0.03in /  0.76mm 0.0 W/m2
06:06 64.2 °F /  17.9 °C 61.9 °F /  16.6 °C 29.61in /  1002.6hPa ESE 2.0mph /  3.2km/h 7.0mph /  11.3km/h 92% 0.02in /  0.51mm 0.0 W/m2
06:12 64.2 °F /  17.9 °C 62.2 °F /  16.8 °C 29.61in /  1002.6hPa SE 4.9mph /  7.9km/h 5.0mph /  8km/h 93% 0.02in /  0.51mm 0.0 W/m2
06:18 64.2 °F /  17.9 °C 62.2 °F /  16.8 °C 29.62in /  1002.9hPa SE 0.9mph /  1.4km/h 10.0mph /  16.1km/h 93% 0.02in /  0.51mm 0.0 W/m2
06:24 64.2 °F /  17.9 °C 62.2 °F /  16.8 °C 29.62in /  1002.9hPa East 8.1mph /  13km/h 9.0mph /  14.5km/h 93% 0.01in /  0.25mm 0.0 W/m2
06:30 64.2 °F /  17.9 °C 62.2 °F /  16.8 °C 29.62in /  1002.9hPa ESE 0.9mph /  1.4km/h 6.0mph /  9.7km/h 93% 0.01in /  0.25mm 0.0 W/m2
06:36 64.2 °F /  17.9 °C 62.2 °F /  16.8 °C 29.62in /  1002.9hPa East 2.0mph /  3.2km/h 5.0mph /  8km/h 93% 0.01in /  0.25mm 0.0 W/m2
06:42 64.2 °F /  17.9 °C 62.2 °F /  16.8 °C 29.63in /  1003.3hPa ESE 4.0mph /  6.4km/h 9.0mph /  14.5km/h 93% 0.00in /  0mm 9.0 W/m2
06:48 64.0 °F /  17.8 °C 62.1 °F /  16.7 °C 29.63in /  1003.3hPa SE 2.9mph /  4.7km/h 6.0mph /  9.7km/h 93% 0.00in /  0mm 16.0 W/m2
06:54 64.0 °F /  17.8 °C 61.7 °F /  16.5 °C 29.63in /  1003.3hPa SE 6.0mph /  9.7km/h 7.0mph /  11.3km/h 92% 0.00in /  0mm 19.0 W/m2
07:00 64.0 °F /  17.8 °C 61.7 °F /  16.5 °C 29.64in /  1003.6hPa ESE 2.0mph /  3.2km/h 6.0mph /  9.7km/h 92% 0.00in /  0mm 19.0 W/m2
07:06 63.9 °F /  17.7 °C 61.5 °F /  16.4 °C 29.64in /  1003.6hPa East 4.0mph /  6.4km/h 8.0mph /  12.9km/h 92% 0.00in /  0mm 28.0 W/m2
07:12 63.9 °F /  17.7 °C 61.2 °F /  16.2 °C 29.64in /  1003.6hPa Calm   7.0mph /  11.3km/h 91% 0.00in /  0mm 21.0 W/m2
07:18 63.9 °F /  17.7 °C 61.2 °F /  16.2 °C 29.64in /  1003.6hPa North 0.9mph /  1.4km/h 5.0mph /  8km/h 91% 0.00in /  0mm 21.0 W/m2
07:24 63.9 °F /  17.7 °C 61.2 °F /  16.2 °C 29.65in /  1003.9hPa Calm   8.0mph /  12.9km/h 91% 0.00in /  0mm 23.0 W/m2
07:30 63.9 °F /  17.7 °C 61.2 °F /  16.2 °C 29.65in /  1003.9hPa SSE 6.0mph /  9.7km/h 11.0mph /  17.7km/h 91% 0.00in /  0mm 35.0 W/m2
07:36 63.7 °F /  17.6 °C 61.0 °F /  16.1 °C 29.65in /  1003.9hPa East 8.1mph /  13km/h 8.1mph /  13km/h 91% 0.00in /  0mm 58.0 W/m2
07:42 63.7 °F /  17.6 °C 61.0 °F /  16.1 °C 29.66in /  1004.3hPa East 2.9mph /  4.7km/h 8.0mph /  12.9km/h 91% 0.00in /  0mm 74.0 W/m2
07:48 63.7 °F /  17.6 °C 61.3 °F /  16.3 °C 29.66in /  1004.3hPa East 6.0mph /  9.7km/h 6.0mph /  9.7km/h 92% 0.00in /  0mm 90.0 W/m2
07:54 63.7 °F /  17.6 °C 61.0 °F /  16.1 °C 29.66in /  1004.3hPa ESE 2.0mph /  3.2km/h 7.0mph /  11.3km/h 91% 0.00in /  0mm 102.0 W/m2
08:00 63.9 °F /  17.7 °C 61.2 °F /  16.2 °C 29.67in /  1004.6hPa ENE 6.9mph /  11.1km/h 9.0mph /  14.5km/h 91% 0.00in /  0mm 114.0 W/m2
08:12 64.2 °F /  17.9 °C 61.5 °F /  16.4 °C 29.67in /  1004.6hPa SSE 0.9mph /  1.4km/h 9.0mph /  14.5km/h 91% 0.00in /  0mm 156.0 W/m2
08:18 64.4 °F /  18 °C 61.7 °F /  16.5 °C 29.67in /  1004.6hPa NE 0.9mph /  1.4km/h 7.0mph /  11.3km/h 91% 0.00in /  0mm 167.0 W/m2
08:24 64.8 °F /  18.2 °C 62.1 °F /  16.7 °C 29.68in /  1005hPa NE 6.0mph /  9.7km/h 7.0mph /  11.3km/h 91% 0.00in /  0mm 181.0 W/m2
08:30 64.8 °F /  18.2 °C 61.7 °F /  16.5 °C 29.68in /  1005hPa ENE 2.9mph /  4.7km/h 7.0mph /  11.3km/h 90% 0.00in /  0mm 107.0 W/m2
08:37 64.8 °F /  18.2 °C 61.7 °F /  16.5 °C 29.68in /  1005hPa East 6.9mph /  11.1km/h 8.0mph /  12.9km/h 90% 0.00in /  0mm 206.0 W/m2
08:43 64.9 °F /  18.3 °C 61.9 °F /  16.6 °C 29.68in /  1005hPa East 2.0mph /  3.2km/h 7.0mph /  11.3km/h 90% 0.00in /  0mm 258.0 W/m2
08:49 65.3 °F /  18.5 °C 62.2 °F /  16.8 °C 29.68in /  1005hPa ESE 4.0mph /  6.4km/h 5.0mph /  8km/h 90% 0.00in /  0mm 292.0 W/m2
08:55 65.7 °F /  18.7 °C 62.1 °F /  16.7 °C 29.69in /  1005.3hPa ENE 2.9mph /  4.7km/h 7.0mph /  11.3km/h 88% 0.00in /  0mm 295.0 W/m2
09:01 65.8 °F /  18.8 °C 61.9 °F /  16.6 °C 29.69in /  1005.3hPa East 6.9mph /  11.1km/h 8.0mph /  12.9km/h 87% 0.00in /  0mm 239.0 W/m2
09:07 66.0 °F /  18.9 °C 62.1 °F /  16.7 °C 29.69in /  1005.3hPa ENE 6.0mph /  9.7km/h 7.0mph /  11.3km/h 87% 0.00in /  0mm 169.0 W/m2
09:13 66.2 °F /  19 °C 62.2 °F /  16.8 °C 29.69in /  1005.3hPa NE 2.9mph /  4.7km/h 7.0mph /  11.3km/h 87% 0.00in /  0mm 116.0 W/m2
09:19 66.0 °F /  18.9 °C 61.7 °F /  16.5 °C 29.69in /  1005.3hPa ESE 2.0mph /  3.2km/h 5.0mph /  8km/h 86% 0.00in /  0mm 118.0 W/m2
09:25 66.0 °F /  18.9 °C 62.1 °F /  16.7 °C 29.69in /  1005.3hPa ENE 0.9mph /  1.4km/h 7.0mph /  11.3km/h 87% 0.00in /  0mm 155.0 W/m2
09:31 66.0 °F /  18.9 °C 61.7 °F /  16.5 °C 29.69in /  1005.3hPa ENE 2.0mph /  3.2km/h 10.0mph /  16.1km/h 86% 0.00in /  0mm 250.0 W/m2
09:37 66.4 °F /  19.1 °C 62.1 °F /  16.7 °C 29.69in /  1005.3hPa ENE 2.9mph /  4.7km/h 6.0mph /  9.7km/h 86% 0.00in /  0mm 209.0 W/m2
09:43 66.6 °F /  19.2 °C 62.2 °F /  16.8 °C 29.70in /  1005.6hPa NE 4.0mph /  6.4km/h 7.0mph /  11.3km/h 86% 0.00in /  0mm 174.0 W/m2
09:49 66.6 °F /  19.2 °C 61.9 °F /  16.6 °C 29.70in /  1005.6hPa Calm   3.0mph /  4.8km/h 85% 0.00in /  0mm 135.0 W/m2
09:55 66.6 °F /  19.2 °C 61.9 °F /  16.6 °C 29.70in /  1005.6hPa NNE 4.9mph /  7.9km/h 6.0mph /  9.7km/h 85% 0.00in /  0mm 336.0 W/m2
10:01 66.7 °F /  19.3 °C 62.1 °F /  16.7 °C 29.70in /  1005.6hPa ENE 4.9mph /  7.9km/h 7.0mph /  11.3km/h 85% 0.00in /  0mm 388.0 W/m2
10:07 67.5 °F /  19.7 °C 62.4 °F /  16.9 °C 29.70in /  1005.6hPa Calm   9.0mph /  14.5km/h 84% 0.00in /  0mm 318.0 W/m2
10:13 67.8 °F /  19.9 °C 62.1 °F /  16.7 °C 29.70in /  1005.6hPa ENE 4.9mph /  7.9km/h 7.0mph /  11.3km/h 82% 0.00in /  0mm 473.0 W/m2
10:27 68.9 °F /  20.5 °C 62.4 °F /  16.9 °C 29.70in /  1005.6hPa NE 4.9mph /  7.9km/h 10.0mph /  16.1km/h 80% 0.00in /  0mm 485.0 W/m2
10:33 69.3 °F /  20.7 °C 62.1 °F /  16.7 °C 29.70in /  1005.6hPa ENE 2.0mph /  3.2km/h 11.0mph /  17.7km/h 78% 0.00in /  0mm 663.0 W/m2
10:39 69.8 °F /  21 °C 62.2 °F /  16.8 °C 29.71in /  1006hPa NNE 4.0mph /  6.4km/h 8.0mph /  12.9km/h 77% 0.00in /  0mm 411.0 W/m2
10:45 70.0 °F /  21.1 °C 62.4 °F /  16.9 °C 29.71in /  1006hPa North 4.9mph /  7.9km/h 9.0mph /  14.5km/h 77% 0.00in /  0mm 427.0 W/m2
10:51 70.0 °F /  21.1 °C 62.8 °F /  17.1 °C 29.70in /  1005.6hPa East 2.9mph /  4.7km/h 8.0mph /  12.9km/h 78% 0.00in /  0mm 547.0 W/m2
10:58 70.2 °F /  21.2 °C 62.6 °F /  17 °C 29.71in /  1006hPa NNE 2.9mph /  4.7km/h 6.0mph /  9.7km/h 77% 0.00in /  0mm 374.0 W/m2
11:04 70.2 °F /  21.2 °C 62.6 °F /  17 °C 29.70in /  1005.6hPa ENE 4.0mph /  6.4km/h 8.0mph /  12.9km/h 77% 0.00in /  0mm 417.0 W/m2
11:10 70.5 °F /  21.4 °C 62.6 °F /  17 °C 29.70in /  1005.6hPa Calm   6.0mph /  9.7km/h 76% 0.00in /  0mm 563.0 W/m2
11:16 71.1 °F /  21.7 °C 62.4 °F /  16.9 °C 29.70in /  1005.6hPa North 2.9mph /  4.7km/h 11.0mph /  17.7km/h 74% 0.00in /  0mm 520.0 W/m2
11:22 71.6 °F /  22 °C 62.4 °F /  16.9 °C 29.70in /  1005.6hPa East 2.0mph /  3.2km/h 7.0mph /  11.3km/h 73% 0.00in /  0mm 464.0 W/m2
11:28 72.0 °F /  22.2 °C 63.1 °F /  17.3 °C 29.70in /  1005.6hPa SE 2.9mph /  4.7km/h 6.0mph /  9.7km/h 74% 0.00in /  0mm 432.0 W/m2
11:34 72.3 °F /  22.4 °C 62.8 °F /  17.1 °C 29.70in /  1005.6hPa NE 4.0mph /  6.4km/h 11.0mph /  17.7km/h 72% 0.00in /  0mm 207.0 W/m2
11:40 72.1 °F /  22.3 °C 62.6 °F /  17 °C 29.70in /  1005.6hPa ENE 8.1mph /  13km/h 11.0mph /  17.7km/h 72% 0.00in /  0mm 200.0 W/m2
11:46 70.7 °F /  21.5 °C 62.8 °F /  17.1 °C 29.70in /  1005.6hPa NE 2.9mph /  4.7km/h 7.0mph /  11.3km/h 76% 0.00in /  0mm 255.0 W/m2
11:52 70.0 °F /  21.1 °C 62.4 °F /  16.9 °C 29.70in /  1005.6hPa NE 4.9mph /  7.9km/h 9.0mph /  14.5km/h 77% 0.00in /  0mm 353.0 W/m2
11:58 70.2 °F /  21.2 °C 62.2 °F /  16.8 °C 29.70in /  1005.6hPa ESE 0.9mph /  1.4km/h 8.0mph /  12.9km/h 76% 0.00in /  0mm 543.0 W/m2
12:04 70.9 °F /  21.6 °C 63.0 °F /  17.2 °C 29.70in /  1005.6hPa Calm   7.0mph /  11.3km/h 76% 0.00in /  0mm 1248.0 W/m2
12:10 72.0 °F /  22.2 °C 62.8 °F /  17.1 °C 29.70in /  1005.6hPa North 4.9mph /  7.9km/h 7.0mph /  11.3km/h 73% 0.00in /  0mm 462.0 W/m2
12:17 73.6 °F /  23.1 °C 63.1 °F /  17.3 °C 29.70in /  1005.6hPa NNW 4.0mph /  6.4km/h 9.0mph /  14.5km/h 70% 0.00in /  0mm 506.0 W/m2
12:23 74.5 °F /  23.6 °C 63.7 °F /  17.6 °C 29.70in /  1005.6hPa East 0.9mph /  1.4km/h 4.0mph /  6.4km/h 69% 0.00in /  0mm 367.0 W/m2
12:29 74.8 °F /  23.8 °C 63.5 °F /  17.5 °C 29.70in /  1005.6hPa NE 4.0mph /  6.4km/h 4.0mph /  6.4km/h 68% 0.00in /  0mm 462.0 W/m2
12:35 74.8 °F /  23.8 °C 63.1 °F /  17.3 °C 29.69in /  1005.3hPa NE 2.0mph /  3.2km/h 5.0mph /  8km/h 67% 0.00in /  0mm 322.0 W/m2
12:41 74.7 °F /  23.7 °C 62.6 °F /  17 °C 29.69in /  1005.3hPa NE 2.0mph /  3.2km/h 4.0mph /  6.4km/h 66% 0.00in /  0mm 311.0 W/m2
12:47 74.5 °F /  23.6 °C 62.8 °F /  17.1 °C 29.69in /  1005.3hPa NNE 4.0mph /  6.4km/h 7.0mph /  11.3km/h 67% 0.00in /  0mm 610.0 W/m2
12:53 74.5 °F /  23.6 °C 62.4 °F /  16.9 °C 29.69in /  1005.3hPa NNE 6.9mph /  11.1km/h 8.0mph /  12.9km/h 66% 0.00in /  0mm 694.0 W/m2
13:00 75.0 °F /  23.9 °C 63.0 °F /  17.2 °C 29.69in /  1005.3hPa NNE 2.0mph /  3.2km/h 6.0mph /  9.7km/h 66% 0.00in /  0mm 694.0 W/m2
13:06 75.9 °F /  24.4 °C 63.3 °F /  17.4 °C 29.69in /  1005.3hPa NNW 4.9mph /  7.9km/h 15.0mph /  24.1km/h 65% 0.00in /  0mm 807.0 W/m2
13:12 75.4 °F /  24.1 °C 62.4 °F /  16.9 °C 29.69in /  1005.3hPa North 6.9mph /  11.1km/h 13.0mph /  20.9km/h 64% 0.00in /  0mm 406.0 W/m2
13:18 74.5 °F /  23.6 °C 62.4 °F /  16.9 °C 29.69in /  1005.3hPa NE 4.9mph /  7.9km/h 10.0mph /  16.1km/h 66% 0.00in /  0mm 540.0 W/m2
13:24 74.3 °F /  23.5 °C 62.6 °F /  17 °C 29.69in /  1005.3hPa NE 0.9mph /  1.4km/h 6.0mph /  9.7km/h 67% 0.00in /  0mm 584.0 W/m2
13:30 74.7 °F /  23.7 °C 62.1 °F /  16.7 °C 29.69in /  1005.3hPa NNE 4.9mph /  7.9km/h 6.0mph /  9.7km/h 65% 0.00in /  0mm 563.0 W/m2
13:36 75.0 °F /  23.9 °C 63.0 °F /  17.2 °C 29.68in /  1005hPa North 4.9mph /  7.9km/h 9.0mph /  14.5km/h 66% 0.00in /  0mm 1547.0 W/m2
13:42 75.2 °F /  24 °C 62.6 °F /  17 °C 29.69in /  1005.3hPa ENE 10.1mph /  16.3km/h 12.0mph /  19.3km/h 65% 0.00in /  0mm 330.0 W/m2
13:48 73.6 °F /  23.1 °C 61.5 °F /  16.4 °C 29.69in /  1005.3hPa NNW 6.0mph /  9.7km/h 12.0mph /  19.3km/h 66% 0.00in /  0mm 318.0 W/m2
13:54 72.1 °F /  22.3 °C 62.6 °F /  17 °C 29.69in /  1005.3hPa NNW 2.9mph /  4.7km/h 6.0mph /  9.7km/h 72% 0.00in /  0mm 438.0 W/m2
14:00 72.1 °F /  22.3 °C 61.9 °F /  16.6 °C 29.69in /  1005.3hPa NE 0.9mph /  1.4km/h 6.0mph /  9.7km/h 70% 0.00in /  0mm 570.0 W/m2
14:06 72.9 °F /  22.7 °C 62.4 °F /  16.9 °C 29.68in /  1005hPa NNE 2.9mph /  4.7km/h 4.0mph /  6.4km/h 70% 0.00in /  0mm 540.0 W/m2
14:12 74.1 °F /  23.4 °C 63.3 °F /  17.4 °C 29.67in /  1004.6hPa SE 4.9mph /  7.9km/h 6.0mph /  9.7km/h 69% 0.00in /  0mm 1429.0 W/m2
14:18 75.6 °F /  24.2 °C 63.3 °F /  17.4 °C 29.68in /  1005hPa NE 2.0mph /  3.2km/h 6.0mph /  9.7km/h 66% 0.00in /  0mm 473.0 W/m2
14:24 76.3 °F /  24.6 °C 62.8 °F /  17.1 °C 29.67in /  1004.6hPa NE 0.9mph /  1.4km/h 4.0mph /  6.4km/h 63% 0.00in /  0mm 499.0 W/m2
14:31 76.8 °F /  24.9 °C 61.3 °F /  16.3 °C 29.67in /  1004.6hPa NE 2.0mph /  3.2km/h 9.0mph /  14.5km/h 59% 0.00in /  0mm 805.0 W/m2
14:37 77.5 °F /  25.3 °C 62.1 °F /  16.7 °C 29.67in /  1004.6hPa NNW 8.1mph /  13km/h 9.0mph /  14.5km/h 59% 0.00in /  0mm 617.0 W/m2
14:43 78.3 °F /  25.7 °C 62.8 °F /  17.1 °C 29.66in /  1004.3hPa ENE 2.9mph /  4.7km/h 6.0mph /  9.7km/h 59% 0.00in /  0mm 1129.0 W/m2
14:49 78.8 °F /  26 °C 62.2 °F /  16.8 °C 29.66in /  1004.3hPa North 4.9mph /  7.9km/h 10.0mph /  16.1km/h 57% 0.00in /  0mm 1032.0 W/m2
14:55 78.4 °F /  25.8 °C 62.4 °F /  16.9 °C 29.66in /  1004.3hPa West 2.0mph /  3.2km/h 8.0mph /  12.9km/h 58% 0.00in /  0mm 278.0 W/m2
15:01 78.4 °F /  25.8 °C 65.3 °F /  18.5 °C 29.66in /  1004.3hPa NNW 4.0mph /  6.4km/h 6.0mph /  9.7km/h 64% 0.00in /  0mm 1097.0 W/m2
15:07 78.4 °F /  25.8 °C 63.3 °F /  17.4 °C 29.65in /  1003.9hPa West 2.0mph /  3.2km/h 5.0mph /  8km/h 60% 0.00in /  0mm 243.0 W/m2
15:14 77.9 °F /  25.5 °C 63.3 °F /  17.4 °C 29.65in /  1003.9hPa WSW 4.9mph /  7.9km/h 7.0mph /  11.3km/h 61% 0.00in /  0mm 301.0 W/m2
15:20 77.2 °F /  25.1 °C 63.7 °F /  17.6 °C 29.65in /  1003.9hPa WSW 2.0mph /  3.2km/h 3.0mph /  4.8km/h 63% 0.00in /  0mm 462.0 W/m2
15:26 77.2 °F /  25.1 °C 64.6 °F /  18.1 °C 29.65in /  1003.9hPa WNW 2.0mph /  3.2km/h 6.0mph /  9.7km/h 65% 0.00in /  0mm 1174.0 W/m2
15:32 77.4 °F /  25.2 °C 64.2 °F /  17.9 °C 29.64in /  1003.6hPa NW 2.9mph /  4.7km/h 6.0mph /  9.7km/h 64% 0.00in /  0mm 802.0 W/m2
15:38 77.4 °F /  25.2 °C 64.2 °F /  17.9 °C 29.64in /  1003.6hPa West 2.0mph /  3.2km/h 3.0mph /  4.8km/h 64% 0.00in /  0mm 278.0 W/m2
15:44 77.2 °F /  25.1 °C 62.6 °F /  17 °C 29.64in /  1003.6hPa SW 4.9mph /  7.9km/h 5.0mph /  8km/h 61% 0.00in /  0mm 125.0 W/m2
15:50 76.6 °F /  24.8 °C 62.6 °F /  17 °C 29.64in /  1003.6hPa NNW 0.9mph /  1.4km/h 4.0mph /  6.4km/h 62% 0.00in /  0mm 105.0 W/m2
15:56 76.3 °F /  24.6 °C 61.3 °F /  16.3 °C 29.64in /  1003.6hPa NNE 4.0mph /  6.4km/h 5.0mph /  8km/h 60% 0.00in /  0mm 160.0 W/m2
16:02 75.9 °F /  24.4 °C 61.0 °F /  16.1 °C 29.63in /  1003.3hPa Calm   5.0mph /  8km/h 60% 0.00in /  0mm 153.0 W/m2
16:14 76.8 °F /  24.9 °C 61.3 °F /  16.3 °C 29.63in /  1003.3hPa East 2.9mph /  4.7km/h 6.0mph /  9.7km/h 59% 0.00in /  0mm 225.0 W/m2
16:21 76.8 °F /  24.9 °C 60.4 °F /  15.8 °C 29.63in /  1003.3hPa NNE 4.0mph /  6.4km/h 6.0mph /  9.7km/h 57% 0.00in /  0mm 227.0 W/m2
16:27 76.6 °F /  24.8 °C 59.7 °F /  15.4 °C 29.63in /  1003.3hPa NNE 2.9mph /  4.7km/h 7.0mph /  11.3km/h 56% 0.00in /  0mm 348.0 W/m2
16:33 77.2 °F /  25.1 °C 60.3 °F /  15.7 °C 29.63in /  1003.3hPa WNW 0.9mph /  1.4km/h 6.0mph /  9.7km/h 56% 0.00in /  0mm 197.0 W/m2
16:39 76.8 °F /  24.9 °C 61.0 °F /  16.1 °C 29.63in /  1003.3hPa NE 2.9mph /  4.7km/h 11.0mph /  17.7km/h 58% 0.00in /  0mm 116.0 W/m2
16:45 75.9 °F /  24.4 °C 61.0 °F /  16.1 °C 29.63in /  1003.3hPa NNW 4.9mph /  7.9km/h 5.0mph /  8km/h 60% 0.00in /  0mm 156.0 W/m2
16:51 75.6 °F /  24.2 °C 60.6 °F /  15.9 °C 29.63in /  1003.3hPa NNW 2.9mph /  4.7km/h 7.0mph /  11.3km/h 60% 0.00in /  0mm 371.0 W/m2
16:58 76.5 °F /  24.7 °C 61.0 °F /  16.1 °C 29.63in /  1003.3hPa NNE 6.0mph /  9.7km/h 7.0mph /  11.3km/h 59% 0.00in /  0mm 552.0 W/m2
17:04 77.2 °F /  25.1 °C 61.3 °F /  16.3 °C 29.63in /  1003.3hPa NNE 4.9mph /  7.9km/h 7.0mph /  11.3km/h 58% 0.00in /  0mm 295.0 W/m2
17:10 77.4 °F /  25.2 °C 61.0 °F /  16.1 °C 29.63in /  1003.3hPa NE 0.9mph /  1.4km/h 3.0mph /  4.8km/h 57% 0.00in /  0mm 276.0 W/m2
17:16 77.4 °F /  25.2 °C 61.3 °F /  16.3 °C 29.63in /  1003.3hPa WNW 0.9mph /  1.4km/h 6.0mph /  9.7km/h 58% 0.00in /  0mm 218.0 W/m2
17:22 77.0 °F /  25 °C 61.5 °F /  16.4 °C 29.63in /  1003.3hPa North 2.0mph /  3.2km/h 7.0mph /  11.3km/h 59% 0.00in /  0mm 98.0 W/m2
17:28 76.3 °F /  24.6 °C 61.3 °F /  16.3 °C 29.63in /  1003.3hPa NW 6.0mph /  9.7km/h 9.0mph /  14.5km/h 60% 0.00in /  0mm 100.0 W/m2
17:35 75.6 °F /  24.2 °C 60.6 °F /  15.9 °C 29.63in /  1003.3hPa Calm   7.0mph /  11.3km/h 60% 0.00in /  0mm 163.0 W/m2
17:41 75.2 °F /  24 °C 60.4 °F /  15.8 °C 29.63in /  1003.3hPa NNW 6.0mph /  9.7km/h 7.0mph /  11.3km/h 60% 0.00in /  0mm 169.0 W/m2
17:47 75.0 °F /  23.9 °C 60.6 °F /  15.9 °C 29.63in /  1003.3hPa North 0.9mph /  1.4km/h 4.0mph /  6.4km/h 61% 0.00in /  0mm 167.0 W/m2
17:53 75.4 °F /  24.1 °C 61.9 °F /  16.6 °C 29.63in /  1003.3hPa NE 0.9mph /  1.4km/h 2.0mph /  3.2km/h 63% 0.00in /  0mm 476.0 W/m2
17:59 75.7 °F /  24.3 °C 61.3 °F /  16.3 °C 29.64in /  1003.6hPa Calm   4.0mph /  6.4km/h 61% 0.00in /  0mm 218.0 W/m2
18:05 76.3 °F /  24.6 °C 61.9 °F /  16.6 °C 29.63in /  1003.3hPa ESE 2.9mph /  4.7km/h 4.0mph /  6.4km/h 61% 0.00in /  0mm 341.0 W/m2
18:11 76.3 °F /  24.6 °C 61.3 °F /  16.3 °C 29.63in /  1003.3hPa NW 6.9mph /  11.1km/h 7.0mph /  11.3km/h 60% 0.00in /  0mm 128.0 W/m2
18:17 75.6 °F /  24.2 °C 61.2 °F /  16.2 °C 29.64in /  1003.6hPa NNE 8.1mph /  13km/h 10.0mph /  16.1km/h 61% 0.00in /  0mm 56.0 W/m2
18:23 74.5 °F /  23.6 °C 61.5 °F /  16.4 °C 29.65in /  1003.9hPa NNW 4.0mph /  6.4km/h 13.0mph /  20.9km/h 64% 0.00in /  0mm 40.0 W/m2
18:29 73.2 °F /  22.9 °C 61.2 °F /  16.2 °C 29.65in /  1003.9hPa North 6.0mph /  9.7km/h 12.0mph /  19.3km/h 66% 0.00in /  0mm 25.0 W/m2
18:35 72.5 °F /  22.5 °C 61.0 °F /  16.1 °C 29.65in /  1003.9hPa NNW 4.0mph /  6.4km/h 8.0mph /  12.9km/h 67% 0.00in /  0mm 16.0 W/m2
18:41 72.0 °F /  22.2 °C 60.8 °F /  16 °C 29.65in /  1003.9hPa North 2.9mph /  4.7km/h 13.0mph /  20.9km/h 68% 0.00in /  0mm 16.0 W/m2
18:47 71.8 °F /  22.1 °C 61.5 °F /  16.4 °C 29.66in /  1004.3hPa NE 4.9mph /  7.9km/h 10.0mph /  16.1km/h 70% 0.00in /  0mm 14.0 W/m2
18:54 71.1 °F /  21.7 °C 62.8 °F /  17.1 °C 29.66in /  1004.3hPa NNE 2.9mph /  4.7km/h 9.0mph /  14.5km/h 75% 0.00in /  0mm 14.0 W/m2
19:00 70.3 °F /  21.3 °C 63.1 °F /  17.3 °C 29.67in /  1004.6hPa NE 4.9mph /  7.9km/h 8.0mph /  12.9km/h 78% 0.00in /  0mm 11.0 W/m2
19:06 69.6 °F /  20.9 °C 63.1 °F /  17.3 °C 29.67in /  1004.6hPa NNE 4.0mph /  6.4km/h 10.0mph /  16.1km/h 80% 0.00in /  0mm 9.0 W/m2
19:12 68.9 °F /  20.5 °C 63.1 °F /  17.3 °C 29.67in /  1004.6hPa NNW 4.0mph /  6.4km/h 7.0mph /  11.3km/h 82% 0.00in /  0mm 5.0 W/m2
19:18 68.4 °F /  20.2 °C 63.0 °F /  17.2 °C 29.67in /  1004.6hPa NNW 6.0mph /  9.7km/h 10.0mph /  16.1km/h 83% 0.00in /  0mm 0.0 W/m2
19:24 67.8 °F /  19.9 °C 62.8 °F /  17.1 °C 29.68in /  1005hPa NNE 4.0mph /  6.4km/h 8.0mph /  12.9km/h 84% 0.00in /  0mm 0.0 W/m2
19:30 67.5 °F /  19.7 °C 62.4 °F /  16.9 °C 29.68in /  1005hPa North 4.0mph /  6.4km/h 10.0mph /  16.1km/h 84% 0.00in /  0mm 0.0 W/m2
19:37 67.3 °F /  19.6 °C 62.6 °F /  17 °C 29.68in /  1005hPa NNW 0.9mph /  1.4km/h 6.0mph /  9.7km/h 85% 0.00in /  0mm 0.0 W/m2
19:43 67.1 °F /  19.5 °C 62.4 °F /  16.9 °C 29.68in /  1005hPa North 2.9mph /  4.7km/h 7.0mph /  11.3km/h 85% 0.00in /  0mm 0.0 W/m2
19:49 67.1 °F /  19.5 °C 62.8 °F /  17.1 °C 29.68in /  1005hPa North 2.9mph /  4.7km/h 8.0mph /  12.9km/h 86% 0.00in /  0mm 0.0 W/m2
19:55 67.1 °F /  19.5 °C 62.8 °F /  17.1 °C 29.68in /  1005hPa North 4.0mph /  6.4km/h 7.0mph /  11.3km/h 86% 0.00in /  0mm 0.0 W/m2
20:01 66.9 °F /  19.4 °C 63.0 °F /  17.2 °C 29.69in /  1005.3hPa NNE 2.9mph /  4.7km/h 7.0mph /  11.3km/h 87% 0.00in /  0mm 0.0 W/m2
20:07 66.9 °F /  19.4 °C 62.6 °F /  17 °C 29.69in /  1005.3hPa NNE 4.0mph /  6.4km/h 5.0mph /  8km/h 86% 0.00in /  0mm 0.0 W/m2
20:13 66.9 °F /  19.4 °C 62.6 °F /  17 °C 29.69in /  1005.3hPa North 2.0mph /  3.2km/h 4.0mph /  6.4km/h 86% 0.00in /  0mm 0.0 W/m2
20:20 66.9 °F /  19.4 °C 62.2 °F /  16.8 °C 29.69in /  1005.3hPa NNW 2.0mph /  3.2km/h 2.0mph /  3.2km/h 85% 0.00in /  0mm 0.0 W/m2
20:26 67.1 °F /  19.5 °C 62.4 °F /  16.9 °C 29.70in /  1005.6hPa Calm   4.0mph /  6.4km/h 85% 0.00in /  0mm 0.0 W/m2
20:32 67.3 °F /  19.6 °C 62.6 °F /  17 °C 29.70in /  1005.6hPa NNE 0.9mph /  1.4km/h 3.0mph /  4.8km/h 85% 0.00in /  0mm 0.0 W/m2
20:37 67.3 °F /  19.6 °C 62.6 °F /  17 °C 29.70in /  1005.6hPa NNE 0.9mph /  1.4km/h 2.0mph /  3.2km/h 85% 0.00in /  0mm 0.0 W/m2
20:44 67.3 °F /  19.6 °C 62.6 °F /  17 °C 29.70in /  1005.6hPa NNW 2.0mph /  3.2km/h 3.0mph /  4.8km/h 85% 0.00in /  0mm 0.0 W/m2
20:50 67.3 °F /  19.6 °C 62.2 °F /  16.8 °C 29.70in /  1005.6hPa NNE 4.9mph /  7.9km/h 7.0mph /  11.3km/h 84% 0.00in /  0mm 0.0 W/m2
20:56 66.9 °F /  19.4 °C 62.6 °F /  17 °C 29.70in /  1005.6hPa North 2.0mph /  3.2km/h 6.0mph /  9.7km/h 86% 0.00in /  0mm 0.0 W/m2
21:02 66.6 °F /  19.2 °C 62.6 °F /  17 °C 29.70in /  1005.6hPa ENE 0.9mph /  1.4km/h 2.0mph /  3.2km/h 87% 0.01in /  0.25mm 0.0 W/m2
21:08 66.4 °F /  19.1 °C 62.8 °F /  17.1 °C 29.71in /  1006hPa Calm   3.0mph /  4.8km/h 88% 0.01in /  0.25mm 0.0 W/m2
21:14 66.0 °F /  18.9 °C 62.6 °F /  17 °C 29.71in /  1006hPa North 2.9mph /  4.7km/h 5.0mph /  8km/h 89% 0.02in /  0.51mm 0.0 W/m2
21:20 65.7 °F /  18.7 °C 62.6 °F /  17 °C 29.71in /  1006hPa NNW 2.9mph /  4.7km/h 3.0mph /  4.8km/h 90% 0.02in /  0.51mm 0.0 W/m2
21:27 65.5 °F /  18.6 °C 62.8 °F /  17.1 °C 29.72in /  1006.3hPa NW 0.9mph /  1.4km/h 2.0mph /  3.2km/h 91% 0.02in /  0.51mm 0.0 W/m2
21:33 65.3 °F /  18.5 °C 62.6 °F /  17 °C 29.72in /  1006.3hPa Calm   1.0mph /  1.6km/h 91% 0.02in /  0.51mm 0.0 W/m2
21:45 64.9 °F /  18.3 °C 62.2 °F /  16.8 °C 29.72in /  1006.3hPa Calm   1.0mph /  1.6km/h 91% 0.02in /  0.51mm 0.0 W/m2
21:51 64.8 °F /  18.2 °C 62.1 °F /  16.7 °C 29.72in /  1006.3hPa Calm   4.0mph /  6.4km/h 91% 0.02in /  0.51mm 0.0 W/m2
21:57 64.8 °F /  18.2 °C 62.1 °F /  16.7 °C 29.72in /  1006.3hPa Calm   2.0mph /  3.2km/h 91% 0.01in /  0.25mm 0.0 W/m2
22:03 64.8 °F /  18.2 °C 62.1 °F /  16.7 °C 29.72in /  1006.3hPa NNW 0.9mph /  1.4km/h 2.0mph /  3.2km/h 91% 0.01in /  0.25mm 0.0 W/m2
22:09 64.6 °F /  18.1 °C 61.9 °F /  16.6 °C 29.72in /  1006.3hPa NNE 2.0mph /  3.2km/h 5.0mph /  8km/h 91% 0.01in /  0.25mm 0.0 W/m2
22:15 64.2 °F /  17.9 °C 61.5 °F /  16.4 °C 29.72in /  1006.3hPa Calm   3.0mph /  4.8km/h 91% 0.00in /  0mm 0.0 W/m2
22:22 64.0 °F /  17.8 °C 61.3 °F /  16.3 °C 29.72in /  1006.3hPa North 2.0mph /  3.2km/h 4.0mph /  6.4km/h 91% 0.00in /  0mm 0.0 W/m2
22:28 64.0 °F /  17.8 °C 61.7 °F /  16.5 °C 29.73in /  1006.7hPa North 2.0mph /  3.2km/h 4.0mph /  6.4km/h 92% 0.00in /  0mm 0.0 W/m2
22:34 64.0 °F /  17.8 °C 61.7 °F /  16.5 °C 29.73in /  1006.7hPa NNW 2.0mph /  3.2km/h 3.0mph /  4.8km/h 92% 0.00in /  0mm 0.0 W/m2
22:40 64.0 °F /  17.8 °C 61.3 °F /  16.3 °C 29.73in /  1006.7hPa NNW 0.9mph /  1.4km/h 3.0mph /  4.8km/h 91% 0.00in /  0mm 0.0 W/m2
22:46 63.9 °F /  17.7 °C 61.5 °F /  16.4 °C 29.72in /  1006.3hPa Calm   2.0mph /  3.2km/h 92% 0.00in /  0mm 0.0 W/m2
22:52 63.7 °F /  17.6 °C 61.0 °F /  16.1 °C 29.72in /  1006.3hPa NNW 2.9mph /  4.7km/h 3.0mph /  4.8km/h 91% 0.00in /  0mm 0.0 W/m2
22:58 63.7 °F /  17.6 °C 61.0 °F /  16.1 °C 29.73in /  1006.7hPa Calm   2.0mph /  3.2km/h 91% 0.00in /  0mm 0.0 W/m2
23:10 63.5 °F /  17.5 °C 60.8 °F /  16 °C 29.72in /  1006.3hPa NNE 2.0mph /  3.2km/h 4.0mph /  6.4km/h 91% 0.00in /  0mm 0.0 W/m2
23:17 63.3 °F /  17.4 °C 60.6 °F /  15.9 °C 29.73in /  1006.7hPa North 0.9mph /  1.4km/h 3.0mph /  4.8km/h 91% 0.00in /  0mm 0.0 W/m2
23:23 63.3 °F /  17.4 °C 60.6 °F /  15.9 °C 29.73in /  1006.7hPa NNE 2.0mph /  3.2km/h 4.0mph /  6.4km/h 91% 0.00in /  0mm 0.0 W/m2
23:29 63.1 °F /  17.3 °C 60.4 °F /  15.8 °C 29.73in /  1006.7hPa NNE 0.9mph /  1.4km/h 4.0mph /  6.4km/h 91% 0.00in /  0mm 0.0 W/m2
23:35 63.1 °F /  17.3 °C 60.4 °F /  15.8 °C 29.72in /  1006.3hPa NNW 2.0mph /  3.2km/h 5.0mph /  8km/h 91% 0.00in /  0mm 0.0 W/m2
23:41 63.1 °F /  17.3 °C 60.4 °F /  15.8 °C 29.72in /  1006.3hPa NNW 0.9mph /  1.4km/h 3.0mph /  4.8km/h 91% 0.00in /  0mm 0.0 W/m2
23:47 63.1 °F /  17.3 °C 60.4 °F /  15.8 °C 29.72in /  1006.3hPa North 0.9mph /  1.4km/h 3.0mph /  4.8km/h 91% 0.00in /  0mm 0.0 W/m2
23:53 63.0 °F /  17.2 °C 60.3 °F /  15.7 °C 29.72in /  1006.3hPa Calm   2.0mph /  3.2km/h 91% 0.00in /  0mm 0.0 W/m2
23:59 63.1 °F /  17.3 °C 60.4 °F /  15.8 °C 29.72in /  1006.3hPa North 0.9mph /  1.4km/h 2.0mph /  3.2km/h 91% 0.00in /  0mm 0.0 W/m2
Olympia, Windhoek, Namibia
Compliments of Weather Underground - 3 mb